createdAt,value
2019-05-15T00:01:08.690Z,14.00
2019-05-15T00:03:41.287Z,13.30
2019-05-15T00:06:13.406Z,12.35
2019-05-15T00:08:47.880Z,12.93
2019-05-15T00:11:19.531Z,11.55
2019-05-15T00:13:51.725Z,12.05
2019-05-15T00:16:23.992Z,13.18
2019-05-15T00:18:56.144Z,12.53
2019-05-15T00:21:28.833Z,12.68
2019-05-15T00:24:01.299Z,11.55
2019-05-15T00:26:33.561Z,11.78
2019-05-15T00:29:12.937Z,10.82
2019-05-15T00:31:39.899Z,11.18
2019-05-15T00:34:12.969Z,11.88
2019-05-15T00:36:45.304Z,11.33
2019-05-15T00:39:18.958Z,11.93
2019-05-15T00:41:54.625Z,9.90
2019-05-15T00:44:25.280Z,10.70
2019-05-15T00:46:58.259Z,11.10
2019-05-15T00:49:31.704Z,10.15
2019-05-15T00:52:04.007Z,10.55
2019-05-15T00:54:36.266Z,11.12
2019-05-15T00:57:09.450Z,12.03
2019-05-15T00:59:41.632Z,12.13
2019-05-15T01:02:13.752Z,12.78
2019-05-15T01:04:48.021Z,11.55
2019-05-15T01:07:20.439Z,11.73
2019-05-15T01:09:52.657Z,12.43
2019-05-15T01:12:24.874Z,11.97
2019-05-15T01:14:58.318Z,11.35
2019-05-15T01:17:30.645Z,10.68
2019-05-15T01:20:02.768Z,10.00
2019-05-15T01:22:35.003Z,10.95
2019-05-15T01:25:08.653Z,10.75
2019-05-15T01:27:40.998Z,10.70
2019-05-15T01:30:13.241Z,10.55
2019-05-15T01:32:45.412Z,11.03
2019-05-15T01:35:18.079Z,11.68
2019-05-15T01:37:50.366Z,11.70
2019-05-15T01:40:23.600Z,11.85
2019-05-15T01:42:58.166Z,12.75
2019-05-15T01:45:30.161Z,11.35
2019-05-15T01:48:02.296Z,10.70
2019-05-15T01:50:34.602Z,10.78
2019-05-15T01:53:08.258Z,10.75
2019-05-15T01:55:41.935Z,9.85
2019-05-15T01:58:14.206Z,10.45
2019-05-15T02:00:48.346Z,11.05
2019-05-15T02:03:20.308Z,10.85
2019-05-15T02:05:52.580Z,10.85
2019-05-15T02:08:24.794Z,11.40
2019-05-15T02:10:58.874Z,10.70
2019-05-15T02:13:30.857Z,11.78
2019-05-15T02:16:03.155Z,11.00
2019-05-15T02:18:35.282Z,10.43
2019-05-15T02:21:10.308Z,11.20
2019-05-15T02:23:41.507Z,10.95
2019-05-15T02:26:14.727Z,13.10
2019-05-15T02:28:48.807Z,9.98
2019-05-15T02:31:21.020Z,10.20
2019-05-15T02:33:53.260Z,9.73
2019-05-15T02:36:29.050Z,11.28
2019-05-15T02:38:59.858Z,11.12
2019-05-15T02:41:32.121Z,11.93
2019-05-15T02:44:04.394Z,12.63
2019-05-15T02:46:39.135Z,11.10
2019-05-15T02:49:10.479Z,11.55
2019-05-15T02:51:42.618Z,10.30
2019-05-15T02:54:15.018Z,10.75
2019-05-15T02:56:49.467Z,11.73
2019-05-15T02:59:21.266Z,10.35
2019-05-15T03:01:53.412Z,12.15
2019-05-15T03:04:28.821Z,11.20
2019-05-15T03:07:00.250Z,10.82
2019-05-15T03:09:32.810Z,11.15
2019-05-15T03:12:05.381Z,11.22
2019-05-15T03:14:39.954Z,10.93
2019-05-15T03:17:11.517Z,9.85
2019-05-15T03:19:43.885Z,10.40
2019-05-15T03:22:16.157Z,9.95
2019-05-15T03:24:50.333Z,9.08
2019-05-15T03:27:22.231Z,8.83
2019-05-15T03:29:54.453Z,8.73
2019-05-15T03:32:36.002Z,9.08
2019-05-15T03:35:04.814Z,11.85
2019-05-15T03:37:34.735Z,11.65
2019-05-15T03:40:10.251Z,10.30
2019-05-15T03:42:41.361Z,10.30
2019-05-15T03:45:13.686Z,10.30
2019-05-15T03:47:48.954Z,9.98
2019-05-15T03:50:19.723Z,9.98
2019-05-15T03:52:51.981Z,9.20
2019-05-15T03:55:24.306Z,9.75
2019-05-15T03:57:59.218Z,9.88
2019-05-15T04:00:30.482Z,10.03
2019-05-15T04:03:02.701Z,10.05
2019-05-15T04:05:34.925Z,9.93
2019-05-15T04:08:10.370Z,9.73
2019-05-15T04:10:41.048Z,10.05
2019-05-15T04:13:13.263Z,10.10
2019-05-15T04:15:49.807Z,11.12
2019-05-15T04:18:20.289Z,11.43
2019-05-15T04:20:52.435Z,10.32
2019-05-15T04:23:24.570Z,10.10
2019-05-15T04:25:58.869Z,9.20
2019-05-15T04:28:30.804Z,8.68
2019-05-15T04:31:03.051Z,10.10
2019-05-15T04:33:35.347Z,9.68
2019-05-15T04:36:09.703Z,8.88
2019-05-15T04:38:41.572Z,8.58
2019-05-15T04:41:13.802Z,10.10
2019-05-15T04:43:49.128Z,8.85
2019-05-15T04:46:20.228Z,9.50
2019-05-15T04:48:52.384Z,9.45
2019-05-15T04:51:24.541Z,9.60
2019-05-15T04:53:58.686Z,10.45
2019-05-15T04:56:30.838Z,9.35
2019-05-15T04:59:03.014Z,9.65
2019-05-15T05:01:35.779Z,7.92
2019-05-15T05:04:09.438Z,8.68
2019-05-15T05:06:42.256Z,9.25
2019-05-15T05:09:14.736Z,7.92
2019-05-15T05:11:48.887Z,8.45
2019-05-15T05:14:21.335Z,8.78
2019-05-15T05:16:53.526Z,8.83
2019-05-15T05:19:28.459Z,9.53
2019-05-15T05:21:59.995Z,10.53
2019-05-15T05:24:32.186Z,10.10
2019-05-15T05:27:08.596Z,10.23
2019-05-15T05:29:40.441Z,9.63
2019-05-15T05:32:28.126Z,9.70
2019-05-15T05:34:48.353Z,10.83
2019-05-15T05:37:20.725Z,11.65
2019-05-15T05:39:53.144Z,9.75
2019-05-15T05:42:26.286Z,9.90
2019-05-15T05:44:58.709Z,10.68
2019-05-15T05:47:30.919Z,9.75
2019-05-15T05:50:03.134Z,11.15
2019-05-15T05:52:35.375Z,10.53
2019-05-15T05:55:08.752Z,10.72
2019-05-15T05:57:41.420Z,10.78
2019-05-15T06:00:13.589Z,8.80
2019-05-15T06:02:48.806Z,9.43
2019-05-15T06:05:19.870Z,9.20
2019-05-15T06:07:52.225Z,9.48
2019-05-15T06:10:24.621Z,9.38
2019-05-15T06:12:58.727Z,8.25
2019-05-15T06:15:31.196Z,7.97
2019-05-15T06:18:03.401Z,9.10
2019-05-15T06:20:35.645Z,7.20
2019-05-15T06:23:08.940Z,7.42
2019-05-15T06:25:41.229Z,6.75
2019-05-15T06:28:13.526Z,6.80
2019-05-15T06:30:45.748Z,7.12
2019-05-15T06:33:18.676Z,6.75
2019-05-15T06:35:51.218Z,6.55
2019-05-15T06:38:23.547Z,5.33
2019-05-15T06:40:58.125Z,4.95
2019-05-15T06:43:30.693Z,5.40
2019-05-15T06:46:03.076Z,4.92
2019-05-15T06:48:35.367Z,4.50
2019-05-15T06:51:08.805Z,4.53
2019-05-15T06:53:41.333Z,3.52
2019-05-15T06:56:13.702Z,5.58
2019-05-15T06:58:48.499Z,6.72
2019-05-15T07:01:20.192Z,7.08
2019-05-15T07:03:52.583Z,5.55
2019-05-15T07:06:25.048Z,7.78
2019-05-15T07:08:58.611Z,7.65
2019-05-15T07:11:31.216Z,8.78
2019-05-15T07:14:03.704Z,10.05
2019-05-15T07:16:35.883Z,8.40
2019-05-15T07:19:08.471Z,10.88
2019-05-15T07:21:40.716Z,11.80
2019-05-15T07:24:12.989Z,14.23
2019-05-15T07:26:45.227Z,11.70
2019-05-15T07:29:18.903Z,12.05
2019-05-15T07:31:51.298Z,10.58
2019-05-15T07:34:23.524Z,7.30
2019-05-15T07:36:55.812Z,8.23
2019-05-15T07:39:28.876Z,6.87
2019-05-15T07:42:01.248Z,7.05
2019-05-15T07:44:33.449Z,4.80
2019-05-15T07:47:05.693Z,3.42
2019-05-15T07:49:38.799Z,4.12
2019-05-15T07:52:11.413Z,4.20
2019-05-15T07:54:43.545Z,3.80
2019-05-15T07:57:15.627Z,3.42
2019-05-15T07:59:48.082Z,3.85
2019-05-15T08:02:20.290Z,10.48
2019-05-15T08:04:52.550Z,4.10
2019-05-15T08:07:24.822Z,3.27
2019-05-15T08:09:59.286Z,3.60
2019-05-15T08:12:31.806Z,3.98
2019-05-15T08:15:05.837Z,3.45
2019-05-15T08:17:59.075Z,3.90
2019-05-15T08:20:13.224Z,3.72
2019-05-15T08:22:45.983Z,7.53
2019-05-15T08:25:30.539Z,3.77
2019-05-15T08:27:52.418Z,3.47
2019-05-15T08:30:24.672Z,3.70
2019-05-15T08:32:58.840Z,3.35
2019-05-15T08:35:30.886Z,11.73
2019-05-15T08:38:03.479Z,13.30
2019-05-15T08:40:40.726Z,8.48
2019-05-15T08:43:11.533Z,2.87
2019-05-15T08:45:44.786Z,2.90
2019-05-15T08:48:18.555Z,3.00
2019-05-15T08:50:50.838Z,3.07
2019-05-15T08:53:23.109Z,3.55
2019-05-15T08:55:55.605Z,2.42
2019-05-15T08:58:29.071Z,2.70
2019-05-15T09:01:01.414Z,4.53
2019-05-15T09:03:33.430Z,3.58
2019-05-15T09:06:05.640Z,2.92
2019-05-15T09:08:39.107Z,2.58
2019-05-15T09:11:11.592Z,2.80
2019-05-15T09:13:44.505Z,2.55
2019-05-15T09:16:18.536Z,2.85
2019-05-15T09:18:50.797Z,2.95
2019-05-15T09:21:23.242Z,3.02
2019-05-15T09:23:55.415Z,2.72
2019-05-15T09:26:28.438Z,2.85
2019-05-15T09:29:00.566Z,3.20
2019-05-15T09:31:32.946Z,2.65
2019-05-15T09:34:05.218Z,2.77
2019-05-15T09:36:40.174Z,3.20
2019-05-15T09:39:13.514Z,3.02
2019-05-15T09:41:45.415Z,3.70
2019-05-15T09:44:21.811Z,3.42
2019-05-15T09:46:52.004Z,3.30
2019-05-15T09:49:24.259Z,3.08
2019-05-15T09:51:58.572Z,3.47
2019-05-15T09:54:31.866Z,3.55
2019-05-15T09:57:04.474Z,3.22
2019-05-15T09:59:38.949Z,3.45
2019-05-15T10:02:10.551Z,3.47
2019-05-15T10:04:43.042Z,3.15
2019-05-15T10:07:15.584Z,3.50
2019-05-15T10:09:48.745Z,3.02
2019-05-15T10:12:21.467Z,3.10
2019-05-15T10:14:53.656Z,3.10
2019-05-15T10:17:28.937Z,2.77
2019-05-15T10:20:00.669Z,3.00
2019-05-15T10:22:32.855Z,3.15
2019-05-15T10:25:08.318Z,2.90
2019-05-15T10:30:12.667Z,3.33
2019-05-15T10:32:45.069Z,3.27
2019-05-15T10:35:25.776Z,3.50
2019-05-15T10:37:51.404Z,3.25
2019-05-15T10:40:23.632Z,3.40
2019-05-15T10:42:59.438Z,3.20
2019-05-15T10:45:32.668Z,3.37
2019-05-15T10:48:04.904Z,3.10
2019-05-15T10:50:38.821Z,2.95
2019-05-15T10:53:11.389Z,2.90
2019-05-15T10:55:43.501Z,3.52
2019-05-15T10:58:18.313Z,2.90
2019-05-15T11:00:49.797Z,2.62
2019-05-15T11:03:22.034Z,3.33
2019-05-15T11:05:54.253Z,4.67
2019-05-15T11:08:28.989Z,3.55
2019-05-15T11:11:00.092Z,3.17
2019-05-15T11:13:32.177Z,2.90
2019-05-15T11:16:04.431Z,3.00
2019-05-15T11:18:39.068Z,2.35
2019-05-15T11:21:10.482Z,3.00
2019-05-15T11:23:42.838Z,2.77
2019-05-15T11:26:14.969Z,3.00
2019-05-15T11:28:49.813Z,3.02
2019-05-15T11:31:24.677Z,3.12
2019-05-15T11:33:55.270Z,2.87
2019-05-15T11:36:28.801Z,3.52
2019-05-15T11:39:01.149Z,3.22
2019-05-15T11:41:34.331Z,2.77
2019-05-15T11:44:06.338Z,3.22
2019-05-15T11:46:39.245Z,2.70
2019-05-15T11:49:11.536Z,2.77
2019-05-15T11:51:43.650Z,3.20
2019-05-15T11:54:15.700Z,3.12
2019-05-15T11:56:48.960Z,2.85
2019-05-15T11:59:22.819Z,2.70
2019-05-15T12:01:55.181Z,2.83
2019-05-15T12:04:33.237Z,2.45
2019-05-15T12:07:02.584Z,2.67
2019-05-15T12:09:35.374Z,2.90
2019-05-15T12:12:09.417Z,3.02
2019-05-15T12:14:41.779Z,3.10
2019-05-15T12:19:54.839Z,2.70
2019-05-15T12:22:23.821Z,2.67
2019-05-15T12:24:55.976Z,2.47
2019-05-15T12:27:28.447Z,2.80
2019-05-15T12:30:00.594Z,3.17
2019-05-15T12:32:36.616Z,3.00
2019-05-15T12:35:07.128Z,2.87
2019-05-15T12:37:40.103Z,3.25
2019-05-15T13:00:46.011Z,6.95
2019-05-15T13:03:18.569Z,2.30
2019-05-15T13:05:50.776Z,3.00
2019-05-15T13:08:22.918Z,3.65
2019-05-15T13:10:56.794Z,2.80
2019-05-15T13:13:28.939Z,2.75
2019-05-15T13:16:01.249Z,2.85
2019-05-15T13:18:33.467Z,2.60
2019-05-15T13:21:05.647Z,3.05
2019-05-15T13:23:38.781Z,2.75
2019-05-15T13:26:22.997Z,2.75
2019-05-15T13:28:45.214Z,2.25
2019-05-15T13:31:19.078Z,2.30
2019-05-15T13:33:51.056Z,2.30
2019-05-15T13:36:23.376Z,2.33
2019-05-15T13:38:57.694Z,2.35
2019-05-15T13:41:29.420Z,2.50
2019-05-15T13:44:01.595Z,2.55
2019-05-15T13:46:33.788Z,2.30
2019-05-15T13:49:08.128Z,2.45
2019-05-15T13:54:12.141Z,2.27
2019-05-15T13:56:44.234Z,2.87
2019-05-15T13:59:16.571Z,2.90
2019-05-15T14:01:48.901Z,2.67
2019-05-15T14:04:21.136Z,2.80
2019-05-15T14:06:53.152Z,2.62
2019-05-15T14:09:25.315Z,2.47
2019-05-15T14:11:59.592Z,2.70
2019-05-15T14:14:31.544Z,2.70
2019-05-15T14:17:03.754Z,2.50
2019-05-15T14:19:35.958Z,2.35
2019-05-15T14:22:08.196Z,2.52
2019-05-15T14:24:40.238Z,2.75
2019-05-15T14:27:12.610Z,3.37
2019-05-15T14:29:44.763Z,2.80
2019-05-15T14:32:32.765Z,3.08
2019-05-15T14:34:51.253Z,3.40
2019-05-15T14:37:23.498Z,3.70
2019-05-15T14:39:57.887Z,2.87
2019-05-15T14:42:29.561Z,2.80
2019-05-15T14:45:01.728Z,2.95
2019-05-15T14:47:33.907Z,3.87
2019-05-15T14:50:09.512Z,5.80
2019-05-15T14:52:40.634Z,3.08
2019-05-15T14:55:13.122Z,3.15
2019-05-15T14:57:48.630Z,2.92
2019-05-15T15:00:20.627Z,3.08
2019-05-15T15:02:53.044Z,2.52
2019-05-15T15:05:25.419Z,3.15
2019-05-15T15:07:58.571Z,2.60
2019-05-15T15:10:30.887Z,2.83
2019-05-15T15:13:03.347Z,3.17
2019-05-15T15:15:37.828Z,3.98
2019-05-15T15:18:09.747Z,3.10
2019-05-15T15:20:41.915Z,3.00
2019-05-15T15:23:14.287Z,3.05
2019-05-15T15:25:48.438Z,2.90
2019-05-15T15:28:20.475Z,3.10
2019-05-15T15:30:52.828Z,2.90
2019-05-15T15:33:25.328Z,3.67
2019-05-15T15:35:58.160Z,3.02
2019-05-15T15:38:40.578Z,3.08
2019-05-15T15:41:04.320Z,3.60
2019-05-15T15:43:38.664Z,3.27
2019-05-15T15:46:10.559Z,3.80
2019-05-15T15:48:43.055Z,4.05
2019-05-15T15:51:17.744Z,4.40
2019-05-15T15:53:49.633Z,4.25
2019-05-15T15:56:22.029Z,4.47
2019-05-15T15:58:54.497Z,4.28
2019-05-15T16:01:28.531Z,4.22
2019-05-15T16:04:01.090Z,4.03
2019-05-15T16:06:33.482Z,4.40
2019-05-15T16:09:08.492Z,4.30
2019-05-15T16:11:40.879Z,4.10
2019-05-15T16:14:13.132Z,4.53
2019-05-15T16:16:45.526Z,4.53
2019-05-15T16:19:18.744Z,4.15
2019-05-15T16:21:51.195Z,4.15
2019-05-15T16:24:23.723Z,4.70
2019-05-15T16:26:58.010Z,4.87
2019-05-15T16:29:30.247Z,5.35
2019-05-15T16:32:02.621Z,4.65
2019-05-15T16:34:35.009Z,4.20
2019-05-15T16:37:08.866Z,4.55
2019-05-15T16:39:41.179Z,5.50
2019-05-15T16:42:13.659Z,4.75
2019-05-15T16:44:48.797Z,4.75
2019-05-15T16:47:20.252Z,4.65
2019-05-15T16:49:52.624Z,4.80
2019-05-15T16:52:25.001Z,4.30
2019-05-15T16:54:58.123Z,4.30
2019-05-15T16:57:30.362Z,5.12
2019-05-15T17:00:06.306Z,5.15
2019-05-15T17:02:39.627Z,5.00
2019-05-15T17:05:12.400Z,5.35
2019-05-15T17:07:44.899Z,4.95
2019-05-15T17:10:20.425Z,5.25
2019-05-15T17:12:52.931Z,4.72
2019-05-15T17:15:27.978Z,5.28
2019-05-15T17:18:00.433Z,5.20
2019-05-15T17:20:32.859Z,5.67
2019-05-15T17:23:05.266Z,5.70
2019-05-15T17:25:40.529Z,17.75
2019-05-15T17:28:13.295Z,15.03
2019-05-15T17:30:48.787Z,10.53
2019-05-15T17:33:21.585Z,8.13
2019-05-15T17:35:54.938Z,8.25
2019-05-15T17:38:28.671Z,8.23
2019-05-15T17:41:01.308Z,11.67
2019-05-15T17:43:35.127Z,14.53
2019-05-15T17:46:08.921Z,31.33
2019-05-15T17:48:41.520Z,40.53
2019-05-15T17:51:13.992Z,25.08
2019-05-15T17:53:49.530Z,22.35
2019-05-15T17:56:22.208Z,22.52
2019-05-15T17:58:54.700Z,21.73
2019-05-15T18:01:30.566Z,12.37
2019-05-15T18:04:08.589Z,9.55
2019-05-15T18:06:41.036Z,8.98
2019-05-15T18:09:13.597Z,9.18
2019-05-15T18:11:47.717Z,9.23
2019-05-15T18:14:21.719Z,10.70
2019-05-15T18:16:58.736Z,9.20
2019-05-15T18:19:31.508Z,11.08
2019-05-15T18:22:03.778Z,10.72
2019-05-15T18:24:39.027Z,11.30
2019-05-15T18:27:11.803Z,10.93
2019-05-15T18:29:48.026Z,10.40
2019-05-15T18:32:20.445Z,17.75
2019-05-15T18:34:58.740Z,11.35
2019-05-15T18:37:31.337Z,11.60
2019-05-15T18:40:06.240Z,12.73
2019-05-15T18:42:39.303Z,11.48
2019-05-15T18:45:12.039Z,11.30
2019-05-15T18:47:44.414Z,11.53
2019-05-15T18:50:23.835Z,10.37
2019-05-15T18:52:58.433Z,11.45
2019-05-15T18:55:32.065Z,10.90
2019-05-15T18:58:04.661Z,12.57
2019-05-15T19:00:39.938Z,13.30
2019-05-15T19:03:19.354Z,14.18
2019-05-15T19:05:48.131Z,13.00
2019-05-15T19:08:28.233Z,13.90
2019-05-15T19:11:00.657Z,13.48
2019-05-15T19:13:38.923Z,13.62
2019-05-15T19:16:11.443Z,14.47
2019-05-15T19:18:47.892Z,15.60
2019-05-15T19:21:21.311Z,14.28
2019-05-15T19:23:53.771Z,16.02
2019-05-15T19:26:26.164Z,14.93
2019-05-15T19:28:59.330Z,14.50
2019-05-15T19:31:31.936Z,14.65
2019-05-15T19:34:04.616Z,15.23
2019-05-15T19:36:38.263Z,16.65
2019-05-15T19:39:10.695Z,16.25
2019-05-15T19:41:43.161Z,14.70
2019-05-15T19:44:17.850Z,14.60
2019-05-15T19:46:49.579Z,14.85
2019-05-15T19:49:25.416Z,15.15
2019-05-15T19:51:58.180Z,15.05
2019-05-15T19:54:30.559Z,15.80
2019-05-15T19:57:04.387Z,16.20
2019-05-15T19:59:38.398Z,15.40
2019-05-15T20:02:14.133Z,16.17
2019-05-15T20:04:48.969Z,15.83
2019-05-15T20:07:20.840Z,15.32
2019-05-15T20:09:53.405Z,16.70
2019-05-15T20:12:27.954Z,15.95
2019-05-15T20:15:00.220Z,15.90
2019-05-15T20:17:32.901Z,16.57
2019-05-15T20:20:08.507Z,16.62
2019-05-15T20:22:41.567Z,17.73
2019-05-15T20:25:14.329Z,17.42
2019-05-15T20:27:48.145Z,17.35
2019-05-15T20:30:20.608Z,16.85
2019-05-15T20:32:53.085Z,18.95
2019-05-15T20:35:28.038Z,19.92
2019-05-15T20:37:59.964Z,20.35
2019-05-15T20:40:32.358Z,21.65
2019-05-15T20:43:08.333Z,20.88
2019-05-15T20:45:40.698Z,21.37
2019-05-15T20:48:13.270Z,20.57
2019-05-15T20:50:48.089Z,21.77
2019-05-15T20:53:21.350Z,21.35
2019-05-15T20:55:53.858Z,23.20
2019-05-15T20:58:26.337Z,18.60
2019-05-15T21:00:59.319Z,17.32
2019-05-15T21:03:34.714Z,18.12
2019-05-15T21:06:09.188Z,18.73
2019-05-15T21:08:40.951Z,18.90
2019-05-15T21:11:13.367Z,18.25
2019-05-15T21:13:45.593Z,18.67
2019-05-15T21:16:18.714Z,19.57
2019-05-15T21:18:51.321Z,18.98
2019-05-15T21:21:23.522Z,18.02
2019-05-15T21:23:55.692Z,18.95
2019-05-15T21:26:29.158Z,19.52
2019-05-15T21:29:01.503Z,18.90
2019-05-15T21:31:35.307Z,18.98
2019-05-15T21:34:08.416Z,18.67
2019-05-15T21:36:40.881Z,18.30
2019-05-15T21:39:13.127Z,19.20
2019-05-15T21:41:45.398Z,20.43
2019-05-15T21:44:19.131Z,20.97
2019-05-15T21:46:51.589Z,19.37
2019-05-15T21:49:24.929Z,17.55
2019-05-15T21:51:58.429Z,18.07
2019-05-15T21:54:30.860Z,17.05
2019-05-15T21:57:18.865Z,16.20
2019-05-15T21:59:38.385Z,17.20
2019-05-15T22:02:11.856Z,17.42
2019-05-15T22:04:52.786Z,17.70
2019-05-15T22:07:18.162Z,17.42
2019-05-15T22:09:50.373Z,26.10
2019-05-15T22:12:22.555Z,19.67
2019-05-15T22:14:54.886Z,19.92
2019-05-15T22:17:29.334Z,19.90
2019-05-15T22:20:01.112Z,18.37
2019-05-15T22:22:33.525Z,18.87
2019-05-15T22:25:10.789Z,21.50
2019-05-15T22:27:40.830Z,20.32
2019-05-15T22:30:13.051Z,22.27
2019-05-15T22:32:45.526Z,18.30
2019-05-15T22:35:18.868Z,21.33
2019-05-15T22:37:51.312Z,18.42
2019-05-15T22:40:23.669Z,18.23
2019-05-15T22:42:55.907Z,17.98
2019-05-15T22:45:28.655Z,15.60
2019-05-15T22:48:01.061Z,17.95
2019-05-15T22:50:33.191Z,17.02
2019-05-15T22:53:05.610Z,18.40
2019-05-15T22:55:37.921Z,17.62
2019-05-15T22:58:10.553Z,17.23
2019-05-15T23:00:42.832Z,16.50
2019-05-15T23:03:18.792Z,17.07
2019-05-15T23:05:50.357Z,17.35
2019-05-15T23:08:22.852Z,17.95
2019-05-15T23:10:55.412Z,16.97
2019-05-15T23:13:28.605Z,17.25
2019-05-15T23:16:01.103Z,17.80
2019-05-15T23:18:33.575Z,18.23
2019-05-15T23:21:06.154Z,18.10
2019-05-15T23:23:38.633Z,16.75
2019-05-15T23:26:11.011Z,17.82
2019-05-15T23:28:43.568Z,16.48
2019-05-15T23:31:16.120Z,14.63
2019-05-15T23:33:48.424Z,14.43
2019-05-15T23:36:20.694Z,14.58
2019-05-15T23:38:52.961Z,16.17
2019-05-15T23:41:25.235Z,17.12
2019-05-15T23:43:57.536Z,17.57
2019-05-15T23:46:30.092Z,16.23
2019-05-15T23:49:02.882Z,16.67
2019-05-15T23:51:35.373Z,16.05
2019-05-15T23:54:08.408Z,15.35
2019-05-15T23:56:40.920Z,14.95
2019-05-15T23:59:13.519Z,15.83
